createdAt,value
2019-04-05T00:00:02.542Z,4.90
2019-04-05T00:05:02.488Z,4.58
2019-04-05T00:10:02.888Z,4.95
2019-04-05T00:15:14.573Z,4.72
2019-04-05T00:20:02.774Z,4.55
2019-04-05T00:25:03.125Z,4.62
2019-04-05T00:30:02.540Z,4.78
2019-04-05T00:35:02.878Z,4.65
2019-04-05T00:40:03.332Z,4.97
2019-04-05T00:45:02.735Z,5.12
2019-04-05T00:50:03.089Z,4.55
2019-04-05T00:55:02.498Z,4.60
2019-04-05T01:00:02.844Z,5.65
2019-04-05T01:05:03.171Z,5.42
2019-04-05T01:10:02.600Z,5.20
2019-04-05T01:15:02.978Z,5.53
2019-04-05T01:20:02.363Z,5.03
2019-04-05T01:25:02.813Z,4.95
2019-04-05T01:30:03.248Z,5.15
2019-04-05T01:35:02.673Z,5.00
2019-04-05T01:40:03.116Z,4.90
2019-04-05T01:45:02.531Z,5.00
2019-04-05T01:50:02.908Z,5.42
2019-04-05T01:55:03.356Z,5.00
2019-04-05T02:00:02.784Z,4.95
2019-04-05T02:05:03.220Z,5.37
2019-04-05T02:10:02.698Z,5.47
2019-04-05T02:15:03.048Z,5.03
2019-04-05T02:20:02.463Z,5.25
2019-04-05T02:25:02.821Z,4.42
2019-04-05T02:30:03.171Z,5.47
2019-04-05T02:35:02.523Z,4.83
2019-04-05T02:40:03.015Z,5.47
2019-04-05T02:45:02.432Z,5.85
2019-04-05T02:50:02.772Z,5.40
2019-04-05T02:55:03.126Z,5.00
2019-04-05T03:00:02.526Z,6.05
2019-04-05T03:05:02.955Z,5.85
2019-04-05T03:10:01.619Z,0
2019-04-05T03:15:03.032Z,5.72
2019-04-05T03:20:02.403Z,5.20
2019-04-05T03:25:02.800Z,4.92
2019-04-05T03:30:03.145Z,5.90
2019-04-05T03:35:02.716Z,5.53
2019-04-05T03:40:03.210Z,5.95
2019-04-05T03:45:02.670Z,5.15
2019-04-05T03:50:03.104Z,4.97
2019-04-05T03:55:02.528Z,5.53
2019-04-05T04:00:02.928Z,5.40
2019-04-05T04:05:03.275Z,5.92
2019-04-05T04:10:02.706Z,5.55
2019-04-05T04:15:03.139Z,6.08
2019-04-05T04:20:02.555Z,9.40
2019-04-05T04:25:02.932Z,7.90
2019-04-05T04:30:02.827Z,6.87
2019-04-05T04:35:03.168Z,6.47
2019-04-05T04:40:02.561Z,5.92
2019-04-05T04:45:12.051Z,6.58
2019-04-05T04:50:03.064Z,5.75
2019-04-05T04:55:02.479Z,6.37
2019-04-05T05:00:02.819Z,6.15
2019-04-05T05:05:03.169Z,7.47
2019-04-05T05:10:03.405Z,6.33
2019-04-05T05:15:03.025Z,6.90
2019-04-05T05:20:02.472Z,6.12
2019-04-05T05:25:02.806Z,6.22
2019-04-05T05:30:03.237Z,5.60
2019-04-05T05:35:02.733Z,7.00
2019-04-05T05:40:03.197Z,6.42
2019-04-05T05:45:02.515Z,7.03
2019-04-05T05:50:02.860Z,6.67
2019-04-05T05:55:03.300Z,8.15
2019-04-05T06:00:02.723Z,6.90
2019-04-05T06:05:03.068Z,6.50
2019-04-05T06:10:02.470Z,6.37
2019-04-05T06:15:03.022Z,7.55
2019-04-05T06:20:02.467Z,6.72
2019-04-05T06:25:02.881Z,7.60
2019-04-05T06:30:03.328Z,8.00
2019-04-05T06:35:02.784Z,6.33
2019-04-05T06:40:03.189Z,6.70
2019-04-05T06:45:02.636Z,6.67
2019-04-05T06:50:03.067Z,6.85
2019-04-05T06:55:02.502Z,7.78
2019-04-05T07:00:03.119Z,8.68
2019-04-05T07:05:02.579Z,11.05
2019-04-05T07:10:03.100Z,8.40
2019-04-05T07:15:02.540Z,7.62
2019-04-05T07:20:02.967Z,7.05
2019-04-05T07:25:02.402Z,8.28
2019-04-05T07:30:02.804Z,7.97
2019-04-05T07:35:03.153Z,11.12
2019-04-05T07:40:02.565Z,7.65
2019-04-05T07:45:02.913Z,10.32
2019-04-05T07:50:03.259Z,10.85
2019-04-05T07:55:02.671Z,16.67
2019-04-05T08:00:03.013Z,14.13
2019-04-05T08:05:02.441Z,17.05
2019-04-05T08:10:03.201Z,15.13
2019-04-05T08:15:02.703Z,19.25
2019-04-05T08:20:03.171Z,15.95
2019-04-05T08:25:02.581Z,25.17
2019-04-05T08:30:03.022Z,19.17
2019-04-05T08:35:02.437Z,17.95
2019-04-05T08:40:02.887Z,19.35
2019-04-05T08:45:03.322Z,13.58
2019-04-05T08:50:02.000Z,0
2019-04-05T08:55:02.366Z,12.70
2019-04-05T09:00:02.726Z,12.53
2019-04-05T09:05:03.146Z,14.85
2019-04-05T09:10:02.569Z,19.35
2019-04-05T09:15:03.002Z,20.37
2019-04-05T09:20:02.427Z,13.55
2019-04-05T09:25:02.869Z,18.00
2019-04-05T09:30:03.217Z,16.90
2019-04-05T09:35:02.568Z,18.87
2019-04-05T09:40:03.065Z,12.07
2019-04-05T09:45:02.492Z,12.33
2019-04-05T09:50:02.838Z,6.80
2019-04-05T09:55:03.180Z,12.63
2019-04-05T10:00:02.586Z,11.50
2019-04-05T10:05:02.932Z,11.25
2019-04-05T10:10:02.359Z,15.75
2019-04-05T10:15:02.687Z,8.95
2019-04-05T10:20:03.129Z,7.45
2019-04-05T10:25:02.553Z,8.65
2019-04-05T10:30:02.899Z,12.35
2019-04-05T10:35:03.238Z,7.87
2019-04-05T10:40:02.660Z,11.73
2019-04-05T10:45:03.003Z,9.85
2019-04-05T10:50:03.588Z,7.47
2019-04-05T10:55:03.166Z,6.78
2019-04-05T11:00:02.583Z,9.25
2019-04-05T11:05:02.959Z,7.10
2019-04-05T11:10:02.484Z,7.12
2019-04-05T11:15:02.887Z,9.08
2019-04-05T11:20:06.959Z,13.60
2019-04-05T11:25:03.262Z,9.75
2019-04-05T11:30:01.785Z,0
2019-04-05T11:35:03.121Z,11.08
2019-04-05T11:40:02.543Z,7.62
2019-04-05T11:45:02.884Z,6.83
2019-04-05T11:50:03.206Z,10.08
2019-04-05T11:55:04.607Z,13.25
2019-04-05T12:00:03.190Z,8.03
2019-04-05T12:05:02.614Z,15.20
2019-04-05T12:10:03.047Z,6.78
2019-04-05T12:15:02.463Z,9.63
2019-04-05T12:20:03.539Z,9.70
2019-04-05T12:25:03.617Z,8.15
2019-04-05T12:30:03.094Z,7.80
2019-04-05T12:35:02.602Z,7.72
2019-04-05T12:40:05.103Z,8.45
2019-04-05T12:45:02.688Z,6.50
2019-04-05T12:50:03.019Z,7.22
2019-04-05T12:55:02.431Z,8.18
2019-04-05T13:00:02.789Z,8.38
2019-04-05T13:05:03.221Z,8.98
2019-04-05T13:10:02.664Z,6.05
2019-04-05T13:15:12.247Z,7.12
2019-04-05T13:20:02.284Z,6.65
2019-04-05T13:25:02.744Z,13.65
2019-04-05T13:30:03.170Z,8.00
2019-04-05T13:35:02.607Z,6.75
2019-04-05T13:40:02.993Z,6.67
2019-04-05T13:45:02.352Z,6.67
2019-04-05T13:50:02.699Z,9.73
2019-04-05T13:55:03.038Z,6.40
2019-04-05T14:00:02.554Z,6.30
2019-04-05T14:05:03.120Z,6.10
2019-04-05T14:10:02.554Z,7.00
2019-04-05T14:15:02.944Z,6.85
2019-04-05T14:20:02.498Z,0
2019-04-05T14:25:02.921Z,6.00
2019-04-05T14:30:03.322Z,5.90
2019-04-05T14:35:02.691Z,7.08
2019-04-05T14:40:03.128Z,7.08
2019-04-05T14:45:02.548Z,8.30
2019-04-05T14:50:02.994Z,13.32
2019-04-05T14:55:02.415Z,8.93
2019-04-05T15:00:02.865Z,9.33
2019-04-05T15:05:03.307Z,9.50
2019-04-05T15:10:03.905Z,9.88
2019-04-05T15:15:02.313Z,15.43
2019-04-05T15:20:04.629Z,13.43
2019-04-05T15:25:03.447Z,11.75
2019-04-05T15:30:02.952Z,11.65
2019-04-05T15:35:03.315Z,13.62
2019-04-05T15:40:02.713Z,13.28
2019-04-05T15:45:03.060Z,12.98
2019-04-05T15:50:02.475Z,12.70
2019-04-05T15:55:03.721Z,14.87
2019-04-05T16:00:04.748Z,11.25
2019-04-05T16:05:02.983Z,11.40
2019-04-05T16:10:02.440Z,12.55
2019-04-05T16:15:02.889Z,11.80
2019-04-05T16:20:03.447Z,12.78
2019-04-05T16:25:03.860Z,12.70
2019-04-05T16:30:02.366Z,13.43
2019-04-05T16:35:02.820Z,11.18
2019-04-05T16:40:03.337Z,12.30
2019-04-05T16:45:02.686Z,13.05
2019-04-05T16:50:03.089Z,12.25
2019-04-05T16:55:01.769Z,0
2019-04-05T17:00:03.150Z,10.30
2019-04-05T17:05:02.557Z,9.90
2019-04-05T17:10:02.953Z,10.55
2019-04-05T17:15:03.279Z,10.40
2019-04-05T17:20:02.676Z,9.78
2019-04-05T17:25:03.315Z,12.30
2019-04-05T17:30:02.643Z,9.50
2019-04-05T17:35:03.081Z,10.53
2019-04-05T17:40:02.497Z,11.03
2019-04-05T17:45:02.864Z,13.65
2019-04-05T17:50:03.193Z,15.35
2019-04-05T17:55:02.638Z,15.23
2019-04-05T18:00:03.039Z,12.13
2019-04-05T18:05:02.367Z,11.33
2019-04-05T18:10:02.753Z,11.63
2019-04-05T18:15:03.144Z,15.72
2019-04-05T18:20:02.575Z,12.80
2019-04-05T18:25:02.919Z,17.87
2019-04-05T18:30:03.350Z,16.20
2019-04-05T18:35:02.765Z,13.68
2019-04-05T18:40:03.154Z,14.05
2019-04-05T18:45:02.478Z,20.25
2019-04-05T18:50:03.495Z,18.25
2019-04-05T18:55:03.008Z,24.63
2019-04-05T19:00:02.338Z,14.55
2019-04-05T19:05:02.776Z,17.50
2019-04-05T19:10:03.318Z,30.37
2019-04-05T19:15:02.730Z,24.87
2019-04-05T19:20:03.085Z,22.27
2019-04-05T19:25:04.812Z,27.52
2019-04-05T19:50:02.765Z,30.57
2019-04-05T19:55:03.152Z,22.67
2019-04-05T20:00:02.522Z,27.07
2019-04-05T20:05:02.859Z,20.50
2019-04-05T20:10:03.344Z,21.42
2019-04-05T20:15:02.683Z,23.22
2019-04-05T20:20:03.102Z,28.98
2019-04-05T20:25:02.479Z,28.45
2019-04-05T20:30:02.898Z,23.38
2019-04-05T20:35:03.307Z,24.95
2019-04-05T20:40:02.790Z,27.13
2019-04-05T20:45:03.169Z,29.75
2019-04-05T20:50:02.538Z,37.60
2019-04-05T20:55:02.923Z,21.90
2019-04-05T21:00:03.276Z,27.37
2019-04-05T21:05:02.655Z,29.70
2019-04-05T21:10:03.082Z,34.70
2019-04-05T21:15:02.507Z,21.48
2019-04-05T21:20:02.893Z,24.80
2019-04-05T21:25:03.337Z,32.28
2019-04-05T21:30:02.662Z,30.80
2019-04-05T21:35:03.066Z,27.73
2019-04-05T21:40:02.511Z,27.82
2019-04-05T21:45:02.918Z,28.98
2019-04-05T21:50:03.401Z,35.80
2019-04-05T21:55:02.809Z,27.52
2019-04-05T22:00:03.574Z,28.27
2019-04-05T22:05:03.020Z,24.30
2019-04-05T22:10:02.545Z,38.40
2019-04-05T22:15:03.007Z,28.23
2019-04-05T22:20:02.525Z,26.17
2019-04-05T22:25:02.968Z,36.15
2019-04-05T22:30:02.521Z,33.67
2019-04-05T22:35:03.007Z,27.85
2019-04-05T22:40:02.588Z,21.57
2019-04-05T22:45:03.093Z,27.22
2019-04-05T22:50:02.623Z,26.77
2019-04-05T22:55:11.068Z,25.05
2019-04-05T23:00:02.782Z,18.70
2019-04-05T23:05:02.627Z,29.27
2019-04-05T23:10:03.135Z,36.30
2019-04-05T23:15:02.589Z,25.25
2019-04-05T23:20:03.030Z,22.45
2019-04-05T23:25:02.552Z,35.35
2019-04-05T23:30:02.959Z,21.45
2019-04-05T23:35:02.404Z,18.82
2019-04-05T23:40:02.929Z,24.90
2019-04-05T23:45:03.373Z,24.77
2019-04-05T23:50:02.812Z,24.70
2019-04-05T23:55:03.348Z,26.48
